• Join FlightAware (Why Join?)
  • Login
  • US Flag 
08:05PM EDT


 

Airport Tracker/Info


-or-


 

Live Flight TrackerFlight Track Log ✈ N690TW ✈ 12-Mar-2014 ✈ KBJC - KGJT

Flight Track Log - Related Links

Times and Time Zones

All times are in EDT time to prevent confusion due to time zone crossing. See the N690TW flight status page for this flight to view local times or setup timezone preferences in your user account.

Time Position Orientation Groundspeed Altitude Reporting Facility
EDT Latitude Longitude Course Direction KTS MPH feet Rate Location/Type
10:23AM 39.9500 -105.1333 254° West 170 196 7,400  Level Denver TRACON
10:24AM 40.0000 -105.1333 360° North 160 184 9,700 2,040 Climbing Denver TRACON
10:25AM 40.0333 -105.1667 323° Northwest 158 182 11,600 1,740 Climbing Denver TRACON
10:26AM 40.0008 -105.2289 236° Southwest 195 224 13,600 1,620 Climbing Denver Center
10:27AM 39.9639 -105.2833 228° Southwest 199 229 15,400 1,680 Climbing Denver Center
10:28AM 39.7922 -105.6565 254° West  Level Estimated
10:28AM 39.9222 -105.3450 229° Southwest 208 239 17,100  Level Denver Center
10:29AM 39.8797 -105.4064 228° Southwest 224 258 18,200 1,200 Climbing Denver Center
10:30AM 39.8381 -105.4753 232° Southwest 239 275 19,700 1,440 Climbing Denver Center
10:31AM 39.8153 -105.5608 251° West 247 284 21,200 1,380 Climbing Denver Center
10:32AM 39.7925 -105.6447 251° West 245 282 22,600 1,380 Climbing Denver Center
10:33AM 39.7669 -105.7328 249° West 254 292 24,100 1,320 Climbing Denver Center
10:34AM 39.7428 -105.8225 251° West 257 296 25,400 900 Climbing Denver Center
10:35AM 39.7117 -105.9375 251° West 282 325 26,000 240 Climbing Denver Center
10:36AM 39.6808 -106.0447 250° West 312 359 26,000  Level Denver Center
10:37AM 39.6503 -106.1558 250° West 325 374 26,000  Level Denver Center
10:38AM 39.6172 -106.2739 250° West 328 377 26,000  Level Denver Center
10:39AM 39.5919 -106.3639 250° West 329 379 26,000  Level Denver Center
10:40AM 39.5536 -106.4983 250° West 330 380 26,000  Level Denver Center
10:41AM 39.5178 -106.6258 250° West 330 380 26,000  Level Denver Center
10:42AM 39.4867 -106.7331 249° West 331 381 26,000  Level Denver Center
10:43AM 39.4506 -106.8578 249° West 331 381 26,000  Level Denver Center
10:44AM 39.4244 -106.9686 253° West 334 384 26,000  Level Denver Center
10:45AM 39.4044 -107.0794 257° West 334 384 26,000  Level Denver Center
10:46AM 39.3792 -107.2100 256° West 334 384 26,000  Level Denver Center
10:47AM 39.3578 -107.3225 256° West 334 384 26,000  Level Denver Center
10:49AM 39.3308 -107.4519 255° West 335 386 26,000 -240 Level Denver Center
10:50AM 39.3092 -107.5656 256° West 337 388 25,500 -600 Descending Denver Center
10:51AM 39.2853 -107.6922 256° West 330 380 24,800 -840 Descending Denver Center
10:52AM 39.2633 -107.8006 255° West 326 375 23,800 -1,560 Descending Denver Center
10:53AM 39.2378 -107.9342 256° West 338 389 21,600 -2,400 Descending Denver Center
10:54AM 39.2242 -108.0522 262° West 334 384 19,000 -2,580 Descending Denver Center
10:55AM 39.2083 -108.1764 261° West 327 376 16,300 -2,520 Descending Denver Center
10:56AM 39.1961 -108.2806 261° West 298 343 13,800 -2,520 Descending Denver Center
10:57AM 39.1769 -108.3753 255° West 267 307 11,200 -2,520 Descending Denver Center
10:58AM 39.1550 -108.4592 251° West 236 272 8,600 -2,040 Descending Denver Center
10:59AM 39.1778 -108.5353 291° West 216 249 7,000 -1,380 Descending Denver Center
11:00AM 39.1536 -108.5686 227° Southwest 173 199 5,800 -1,080 Descending Denver Center
11:01AM 39.1325 -108.5414 135° Southeast 125 144 4,800 -960 Descending Denver Center
11:03AM 39.1224 -108.5267 255° West  Level Estimated
11:10AM 39.1224 -108.5267 90° East  Level Estimated
11:11AM 39.1224 -108.5267 90° East  Level Estimated